Time;durP1;ratioP1;P1;durP2;ratioP2;P2;SDS_P1;SDS_P2;PMS_P1;PMS_P2;Temp;Humidity;BMP_temperature;BMP_pressure;BME280_temperature;BME280_humidity;BME280_pressure;Samples;Min_cycle;Max_cycle;Signal;HPM_P1;HPM_P2
2022/02/11 00:04:29;;;;;;;5.88;4.28;;;6.30;99.90;;;;;;5014250;28;20030;-58
2022/02/11 00:07:07;;;;;;;3.72;3.10;;;6.20;99.90;;;;;;5014024;28;20034;-59
2022/02/11 00:09:33;;;;;;;4.43;2.97;;;6.10;99.90;;;;;;5014967;28;20405;-58
2022/02/11 00:11:58;;;;;;;4.10;2.90;;;6.10;99.90;;;;;;5014635;28;20029;-58
2022/02/11 00:14:26;;;;;;;5.88;2.97;;;5.90;99.90;;;;;;5015176;28;20113;-59
2022/02/11 00:16:51;;;;;;;3.55;2.53;;;5.80;99.90;;;;;;5015036;28;20168;-59
2022/02/11 00:19:20;;;;;;;4.28;2.70;;;5.60;99.90;;;;;;4997493;28;20054;-59
2022/02/11 00:21:46;;;;;;;4.45;2.67;;;5.60;99.90;;;;;;5013578;28;20030;-58
2022/02/11 00:24:13;;;;;;;4.70;2.33;;;5.60;99.90;;;;;;5013929;28;20397;-55
2022/02/11 00:26:42;;;;;;;2.40;2.20;;;5.30;99.90;;;;;;4996916;28;20053;-58
2022/02/11 00:32:05;;;;;;;2.75;1.83;;;5.20;99.90;;;;;;5008702;28;20030;-53
2022/02/11 00:34:48;;;;;;;2.13;1.92;;;5.20;99.90;;;;;;5009672;28;20129;-58
2022/02/11 00:37:20;;;;;;;3.45;2.20;;;5.30;99.90;;;;;;5012425;28;20037;-59
2022/02/11 01:03:59;;;;;;;3.70;2.80;;;5.60;99.90;;;;;;5011997;28;20025;-56
2022/02/11 01:06:25;;;;;;;3.75;2.20;;;5.60;99.90;;;;;;5013731;28;20025;-57
2022/02/11 01:08:52;;;;;;;5.80;2.53;;;5.60;99.90;;;;;;5013645;28;20026;-55
2022/02/11 01:11:25;;;;;;;3.42;2.30;;;5.60;99.90;;;;;;5013995;28;20583;-58
2022/02/11 01:13:50;;;;;;;3.13;2.25;;;5.70;99.90;;;;;;4997368;28;20092;-59
2022/02/11 01:16:22;;;;;;;3.25;2.30;;;5.50;99.90;;;;;;5013337;28;20370;-57
2022/02/11 01:18:55;;;;;;;7.32;2.42;;;5.20;99.90;;;;;;5011181;28;20018;-57
2022/02/11 01:21:29;;;;;;;3.53;2.20;;;5.20;99.90;;;;;;5013369;28;20030;-58
2022/02/11 01:24:05;;;;;;;5.50;2.67;;;5.30;99.90;;;;;;5014211;28;20046;-60
2022/02/11 01:47:39;;;;;;;2.63;2.40;;;5.00;99.90;;;;;;5012702;28;20099;-59
2022/02/11 01:50:28;;;;;;;9.00;2.75;;;5.10;99.90;;;;;;5006037;28;20081;-58
2022/02/11 02:01:43;;;;;;;3.80;2.72;;;5.00;99.90;;;;;;4994766;28;20429;-59
2022/02/11 02:04:38;;;;;;;3.53;2.33;;;4.70;99.90;;;;;;5006555;28;20057;-60
2022/02/11 02:15:20;;;;;;;4.03;2.55;;;4.50;99.90;;;;;;5013472;28;20145;-58
2022/02/11 02:23:15;;;;;;;;;;;4.30;99.90;;;;;;5013296;28;20033;-57
2022/02/11 02:25:54;;;;;;;3.25;2.55;;;4.30;99.90;;;;;;5013322;28;19910;-59
2022/02/11 02:32:10;;;;;;;6.30;2.42;;;4.20;99.90;;;;;;5012865;28;20033;-59
2022/02/11 02:34:20;;;;;;;3.47;2.20;;;4.20;99.90;;;;;;5012489;28;20034;-59
2022/02/11 02:50:23;;;;;;;4.35;2.63;;;3.70;99.90;;;;;;5012570;28;20061;-58
2022/02/11 02:58:29;;;;;;;4.53;3.00;;;4.10;99.90;;;;;;5012456;28;20026;-60
2022/02/11 03:15:02;;;;;;;4.17;2.70;;;3.60;99.90;;;;;;5016606;28;20034;-57
2022/02/11 03:18:01;;;;;;;4.70;3.05;;;3.50;99.90;;;;;;5016573;28;20269;-58
2022/02/11 03:34:42;;;;;;;4.70;3.20;;;3.70;99.90;;;;;;5015454;28;20038;-58
2022/02/11 04:23:36;;;;;;;6.37;3.87;;;3.60;99.90;;;;;;5015254;28;20269;-59
2022/02/11 04:26:40;;;;;;;8.60;4.57;;;3.60;99.90;;;;;;5014861;28;20026;-59
2022/02/11 04:56:26;;;;;;;7.20;3.72;;;3.20;99.90;;;;;;5014013;28;20281;-58
2022/02/11 05:01:40;;;;;;;9.27;3.85;;;3.40;99.90;;;;;;5014923;28;20050;-57
2022/02/11 05:04:06;;;;;;;8.88;3.35;;;3.50;99.90;;;;;;5014782;28;20084;-58
2022/02/11 05:06:31;;;;;;;9.40;3.40;;;3.40;99.90;;;;;;5013845;28;20026;-59
2022/02/11 05:08:59;;;;;;;10.98;3.50;;;3.40;99.90;;;;;;5013724;28;20092;-56
2022/02/11 05:11:25;;;;;;;11.30;3.28;;;3.40;99.90;;;;;;5013656;28;20052;-57
2022/02/11 05:13:50;;;;;;;7.90;3.30;;;3.50;99.90;;;;;;5013919;28;20029;-55
2022/02/11 05:16:16;;;;;;;5.32;3.25;;;3.50;99.90;;;;;;5013793;28;20032;-57
2022/02/11 05:18:41;;;;;;;7.30;3.28;;;3.50;99.90;;;;;;5014003;28;20026;-57
2022/02/11 05:21:07;;;;;;;10.02;3.78;;;3.50;99.90;;;;;;5013170;28;20057;-57
2022/02/11 05:23:32;;;;;;;7.60;3.10;;;3.30;99.90;;;;;;5012637;28;20539;-52
2022/02/11 05:25:58;;;;;;;5.53;3.20;;;3.30;99.90;;;;;;5013267;28;20647;-58
2022/02/11 05:28:24;;;;;;;8.95;3.90;;;3.40;99.90;;;;;;5022351;28;20025;-58
2022/02/11 05:30:49;;;;;;;9.70;3.75;;;3.30;99.90;;;;;;5013594;28;20107;-58
2022/02/11 05:33:15;;;;;;;8.85;4.20;;;3.20;99.90;;;;;;5013047;28;20157;-57
2022/02/11 05:35:41;;;;;;;5.93;3.40;;;3.00;99.90;;;;;;5013772;28;20052;-58
2022/02/11 05:38:07;;;;;;;7.70;4.32;;;3.10;99.90;;;;;;4995708;28;20045;-58
2022/02/11 05:40:33;;;;;;;8.13;5.05;;;3.20;99.90;;;;;;5013312;28;20030;-60
2022/02/11 05:42:59;;;;;;;6.03;3.92;;;3.20;99.90;;;;;;5013267;28;20049;-58
2022/02/11 05:45:24;;;;;;;9.95;4.53;;;3.20;99.90;;;;;;5013557;28;20034;-58
2022/02/11 05:47:50;;;;;;;8.73;4.78;;;3.30;99.90;;;;;;5013254;28;20541;-56
2022/02/11 05:50:15;;;;;;;7.90;4.22;;;3.40;99.90;;;;;;5013085;28;20046;-59
2022/02/11 05:52:41;;;;;;;6.75;5.00;;;3.40;99.90;;;;;;5012640;28;20038;-59
2022/02/11 05:55:07;;;;;;;6.63;5.15;;;3.50;99.90;;;;;;5012893;28;20556;-58
2022/02/11 05:57:32;;;;;;;7.38;4.93;;;3.60;99.90;;;;;;5013498;28;20059;-59
2022/02/11 05:59:59;;;;;;;8.20;5.55;;;3.40;99.90;;;;;;5012437;28;20460;-56
2022/02/11 06:02:25;;;;;;;7.43;5.30;;;3.50;99.90;;;;;;5012714;28;20041;-56
2022/02/11 06:04:50;;;;;;;6.63;4.82;;;3.50;99.90;;;;;;5015684;28;20409;-56
2022/02/11 06:07:16;;;;;;;8.95;6.53;;;3.50;99.90;;;;;;5013179;28;20172;-59
2022/02/11 06:09:42;;;;;;;8.57;5.38;;;3.50;99.90;;;;;;5013889;28;20037;-57
2022/02/11 06:12:08;;;;;;;6.07;4.55;;;3.60;99.90;;;;;;4995411;28;20053;-57
2022/02/11 06:14:38;;;;;;;10.10;4.60;;;3.60;99.90;;;;;;5013459;28;20033;-57
2022/02/11 06:17:04;;;;;;;7.40;5.28;;;3.50;99.90;;;;;;4997104;28;20024;-60
2022/02/11 06:19:30;;;;;;;6.70;4.60;;;3.30;99.90;;;;;;5013836;28;20037;-57
2022/02/11 06:21:55;;;;;;;7.38;4.45;;;3.30;99.90;;;;;;5012739;28;20040;-57
2022/02/11 06:24:21;;;;;;;5.80;4.60;;;3.40;99.90;;;;;;5012952;28;20030;-57
2022/02/11 06:26:46;;;;;;;14.82;4.88;;;3.40;99.90;;;;;;5013216;28;20076;-57
2022/02/11 06:29:13;;;;;;;10.52;4.93;;;3.50;99.90;;;;;;5012360;28;20062;-57
2022/02/11 06:31:39;;;;;;;8.20;4.60;;;3.30;99.90;;;;;;5013029;28;20088;-54
2022/02/11 06:34:06;;;;;;;7.88;4.82;;;3.30;99.90;;;;;;4997569;28;20031;-59
2022/02/11 06:36:32;;;;;;;7.13;4.88;;;3.00;99.90;;;;;;5019434;28;20452;-58
2022/02/11 06:38:58;;;;;;;10.02;6.72;;;3.00;99.90;;;;;;5018854;28;20034;-58
2022/02/11 06:41:23;;;;;;;7.80;5.38;;;3.00;99.90;;;;;;5019607;28;20033;-59
2022/02/11 06:43:49;;;;;;;8.98;5.25;;;3.20;99.90;;;;;;5019192;28;20037;-59
2022/02/11 06:46:17;;;;;;;12.40;5.43;;;3.20;99.90;;;;;;5019141;28;20184;-58
2022/02/11 06:48:43;;;;;;;19.65;6.35;;;3.20;99.90;;;;;;5018944;28;20033;-56
2022/02/11 06:51:09;;;;;;;13.85;5.53;;;3.10;99.90;;;;;;5018948;28;20038;-58
2022/02/11 06:53:36;;;;;;;14.63;6.32;;;3.20;99.90;;;;;;4999962;28;20037;-60
2022/02/11 06:56:02;;;;;;;9.40;5.40;;;3.10;99.90;;;;;;5017625;28;20480;-58
2022/02/11 06:58:28;;;;;;;9.75;5.32;;;3.10;99.90;;;;;;5019048;28;20513;-57
2022/02/11 07:00:54;;;;;;;8.40;5.18;;;3.00;99.90;;;;;;5019299;28;20497;-57
2022/02/11 07:03:20;;;;;;;16.10;4.97;;;3.00;99.90;;;;;;5018725;28;20132;-58
2022/02/11 07:05:45;;;;;;;31.13;7.45;;;3.00;99.90;;;;;;5019314;28;20050;-58
2022/02/11 07:08:11;;;;;;;38.17;7.95;;;2.90;99.90;;;;;;5022113;28;20030;-57
2022/02/11 07:10:37;;;;;;;15.25;5.47;;;3.00;99.90;;;;;;5016624;28;20533;-57
2022/02/11 07:13:02;;;;;;;8.13;5.10;;;3.00;99.90;;;;;;5018348;28;20473;-58
2022/02/11 07:15:34;;;;;;;9.23;5.60;;;2.90;99.90;;;;;;5018125;28;20120;-60
2022/02/11 07:18:00;;;;;;;8.50;5.53;;;2.80;99.90;;;;;;5018722;28;20397;-58
2022/02/11 07:20:26;;;;;;;9.00;5.63;;;2.80;99.90;;;;;;5019127;28;20113;-57
2022/02/11 07:22:51;;;;;;;8.73;5.75;;;2.80;99.90;;;;;;5020991;28;20034;-59
2022/02/11 07:25:17;;;;;;;9.95;5.90;;;2.80;99.90;;;;;;5018428;28;20033;-54
2022/02/11 07:27:42;;;;;;;10.95;5.88;;;2.90;99.90;;;;;;5019109;28;20034;-57
2022/02/11 07:30:08;;;;;;;11.05;5.45;;;2.80;99.90;;;;;;5018803;28;20034;-58
2022/02/11 07:32:35;;;;;;;7.57;5.38;;;2.80;99.90;;;;;;5008473;28;20537;-58
2022/02/11 07:35:02;;;;;;;9.38;6.15;;;2.90;99.90;;;;;;5018456;28;20401;-59
2022/02/11 07:37:30;;;;;;;10.70;5.85;;;3.00;99.90;;;;;;5018071;28;20562;-59
2022/02/11 07:39:57;;;;;;;7.85;5.88;;;3.10;99.90;;;;;;5018697;28;20072;-59
2022/02/11 07:42:25;;;;;;;8.43;6.28;;;3.20;99.90;;;;;;5000363;28;20033;-58
2022/02/11 07:44:51;;;;;;;7.05;5.82;;;3.20;99.90;;;;;;5018227;28;20497;-58
2022/02/11 07:47:17;;;;;;;11.98;6.90;;;3.20;99.90;;;;;;5017142;28;20149;-60
2022/02/11 07:49:42;;;;;;;12.52;5.82;;;3.30;99.90;;;;;;5015185;28;20041;-58
2022/02/11 07:52:08;;;;;;;20.73;8.48;;;3.40;99.90;;;;;;5014689;28;20034;-60
2022/02/11 07:54:33;;;;;;;19.15;9.10;;;3.50;99.90;;;;;;5015373;28;20033;-57
2022/02/11 07:56:59;;;;;;;26.85;9.73;;;3.60;99.90;;;;;;5015204;28;20573;-60
2022/02/11 07:59:25;;;;;;;37.97;10.00;;;3.70;99.90;;;;;;5014808;28;20103;-58
2022/02/11 08:01:50;;;;;;;24.33;8.13;;;3.70;99.90;;;;;;5013700;28;20202;-57
2022/02/11 08:04:16;;;;;;;13.32;6.57;;;3.70;99.90;;;;;;5014564;28;20448;-57
2022/02/11 08:06:41;;;;;;;13.43;6.78;;;3.80;99.90;;;;;;5015262;28;20042;-55
2022/02/11 08:09:07;;;;;;;22.45;8.10;;;3.80;99.90;;;;;;5017654;28;20037;-60
2022/02/11 08:11:33;;;;;;;15.98;7.75;;;3.90;99.90;;;;;;5015664;28;20482;-60
2022/02/11 08:13:59;;;;;;;9.48;5.95;;;3.90;99.90;;;;;;5016103;28;20030;-58
2022/02/11 08:16:25;;;;;;;11.55;7.05;;;3.80;99.90;;;;;;5017149;28;20026;-59
2022/02/11 08:18:51;;;;;;;9.13;6.65;;;3.90;99.90;;;;;;5016691;28;20044;-58
2022/02/11 08:21:17;;;;;;;13.23;7.55;;;3.80;99.90;;;;;;5007100;28;20041;-58
2022/02/11 08:23:42;;;;;;;11.35;7.70;;;3.80;99.90;;;;;;5017694;28;20160;-60
2022/02/11 08:26:08;;;;;;;14.27;7.70;;;4.00;99.90;;;;;;5009873;28;20057;-63
2022/02/11 08:28:35;;;;;;;13.48;8.43;;;4.10;99.90;;;;;;4992162;28;20080;-60
2022/02/11 08:31:02;;;;;;;13.20;7.25;;;4.00;99.90;;;;;;4997586;28;20041;-56
2022/02/11 08:33:27;;;;;;;13.10;7.20;;;4.00;99.90;;;;;;5014252;28;20389;-56
2022/02/11 08:35:55;;;;;;;12.05;6.57;;;4.00;99.90;;;;;;5013899;28;20026;-57
2022/02/11 08:38:22;;;;;;;14.98;6.88;;;4.00;99.90;;;;;;5013214;28;20026;-57
2022/02/11 08:40:49;;;;;;;8.73;6.10;;;4.00;99.90;;;;;;5009835;28;20029;-59
2022/02/11 08:43:14;;;;;;;9.57;5.95;;;3.90;99.90;;;;;;5012852;28;20058;-59
2022/02/11 08:45:41;;;;;;;8.57;6.03;;;3.80;99.90;;;;;;5011569;28;20056;-52
2022/02/11 08:48:11;;;;;;;9.68;6.45;;;3.80;99.90;;;;;;5011403;28;20575;-56
2022/02/11 08:50:38;;;;;;;11.35;6.35;;;3.70;99.90;;;;;;5011623;28;20034;-53
2022/02/11 08:53:05;;;;;;;11.07;6.28;;;3.70;99.90;;;;;;5015869;28;20409;-59
2022/02/11 08:55:30;;;;;;;11.60;7.22;;;3.80;99.90;;;;;;5013737;28;20026;-56
2022/02/11 08:57:59;;;;;;;9.23;6.00;;;3.70;99.90;;;;;;5012595;28;20077;-54
2022/02/11 09:00:26;;;;;;;13.02;6.05;;;3.80;99.90;;;;;;5012770;28;20057;-54
2022/02/11 09:02:52;;;;;;;12.20;6.70;;;3.80;99.90;;;;;;5012923;28;20038;-54
2022/02/11 09:05:21;;;;;;;10.43;6.53;;;3.70;99.90;;;;;;5010540;28;20044;-50
2022/02/11 09:07:53;;;;;;;6.88;5.70;;;3.80;99.90;;;;;;4994485;28;20037;-56
2022/02/11 09:10:21;;;;;;;9.25;6.55;;;3.70;99.90;;;;;;5013546;28;20030;-51
2022/02/11 09:12:46;;;;;;;9.65;6.38;;;3.70;99.90;;;;;;5012916;28;20041;-55
2022/02/11 09:15:12;;;;;;;10.30;6.30;;;3.70;99.90;;;;;;5014272;28;20026;-57
2022/02/11 09:17:38;;;;;;;10.75;6.65;;;3.70;99.90;;;;;;5013106;28;20116;-49
2022/02/11 09:20:04;;;;;;;14.05;6.60;;;3.80;99.90;;;;;;5013430;28;20076;-53
2022/02/11 09:22:30;;;;;;;12.10;5.75;;;3.80;99.90;;;;;;5012531;28;20029;-53
2022/02/11 09:24:56;;;;;;;10.00;7.05;;;3.80;99.90;;;;;;5013017;28;20129;-53
2022/02/11 09:27:22;;;;;;;10.50;6.35;;;3.90;99.90;;;;;;5013194;28;20115;-51
2022/02/11 09:29:48;;;;;;;10.43;6.82;;;4.00;99.90;;;;;;5013284;28;20049;-53
2022/02/11 09:32:14;;;;;;;7.13;5.85;;;4.00;99.90;;;;;;5010638;28;20038;-57
2022/02/11 09:34:40;;;;;;;10.07;6.55;;;4.00;99.90;;;;;;5010491;28;20121;-51
2022/02/11 09:37:05;;;;;;;9.32;5.85;;;4.00;99.90;;;;;;4995452;28;20113;-51
2022/02/11 09:39:31;;;;;;;8.70;6.20;;;4.00;99.90;;;;;;5013608;28;20061;-52
2022/02/11 09:41:58;;;;;;;11.82;6.50;;;4.00;99.90;;;;;;4996023;28;20084;-52
2022/02/11 09:44:27;;;;;;;10.32;6.72;;;4.00;99.90;;;;;;5013427;28;20548;-55
2022/02/11 09:46:55;;;;;;;11.50;5.97;;;4.10;99.90;;;;;;5013869;28;20437;-54
2022/02/11 09:49:21;;;;;;;11.20;5.95;;;4.10;99.90;;;;;;5014337;28;20029;-53
2022/02/11 09:51:50;;;;;;;11.15;7.10;;;4.20;99.90;;;;;;5015949;28;20041;-54
2022/02/11 09:54:20;;;;;;;12.18;6.57;;;4.20;99.90;;;;;;5013698;28;20026;-56
2022/02/11 09:56:45;;;;;;;11.18;6.68;;;4.30;99.90;;;;;;5011845;28;20053;-55
2022/02/11 09:59:11;;;;;;;12.10;6.38;;;4.30;99.90;;;;;;5013427;28;20081;-54
2022/02/11 10:01:40;;;;;;;14.38;6.55;;;4.60;99.90;;;;;;5008591;28;20033;-54
2022/02/11 10:04:07;;;;;;;13.65;6.90;;;4.50;99.90;;;;;;5009280;28;20046;-57
2022/02/11 10:06:32;;;;;;;18.50;8.07;;;4.50;99.90;;;;;;5019473;28;20453;-53
2022/02/11 10:08:58;;;;;;;11.93;6.97;;;4.50;99.90;;;;;;5015229;28;20054;-54
2022/02/11 10:11:23;;;;;;;9.50;6.85;;;4.50;99.90;;;;;;5013215;28;20038;-53
2022/02/11 10:13:49;;;;;;;10.30;7.00;;;4.50;99.90;;;;;;5009655;28;20042;-52
2022/02/11 10:16:16;;;;;;;12.77;6.47;;;4.60;99.90;;;;;;5013319;28;20033;-56
2022/02/11 10:18:48;;;;;;;15.75;8.40;;;4.60;99.90;;;;;;5014067;28;20048;-54
2022/02/11 10:21:23;;;;;;;16.55;8.05;;;4.60;99.90;;;;;;5012642;28;20038;-52
2022/02/11 10:23:51;;;;;;;13.45;7.75;;;4.60;99.90;;;;;;5011198;28;20053;-56
2022/02/11 10:26:18;;;;;;;17.85;8.27;;;4.60;99.90;;;;;;5013398;28;20038;-51
2022/02/11 10:28:56;;;;;;;15.23;7.72;;;4.60;99.90;;;;;;4995367;28;20041;-53
2022/02/11 10:31:31;;;;;;;10.75;8.02;;;4.60;99.90;;;;;;5012828;28;20038;-52
2022/02/11 10:34:05;;;;;;;12.95;6.88;;;4.50;99.90;;;;;;5013373;28;20374;-51
2022/02/11 10:36:35;;;;;;;14.90;7.40;;;4.50;99.90;;;;;;5013107;28;20046;-54
2022/02/11 10:39:05;;;;;;;12.40;8.02;;;4.60;99.90;;;;;;5013119;28;20034;-56
2022/02/11 10:41:32;;;;;;;9.57;7.57;;;4.60;99.90;;;;;;5012626;28;20037;-54
2022/02/11 10:44:14;;;;;;;12.00;7.68;;;4.70;99.90;;;;;;5013338;28;20132;-51
2022/02/11 10:46:46;;;;;;;9.70;7.60;;;4.80;99.90;;;;;;4993202;28;20668;-54
2022/02/11 10:49:13;;;;;;;12.15;7.07;;;4.80;99.90;;;;;;4993182;28;20140;-53
2022/02/11 10:51:43;;;;;;;11.60;6.90;;;4.80;99.90;;;;;;5012788;28;20586;-52
2022/02/11 10:54:29;;;;;;;9.45;6.45;;;4.80;99.90;;;;;;5012743;28;20034;-54
2022/02/11 10:57:00;;;;;;;10.43;5.85;;;4.80;99.90;;;;;;5006717;28;20026;-51
2022/02/11 10:59:38;;;;;;;11.95;7.13;;;4.80;99.90;;;;;;5013271;28;20049;-56
2022/02/11 11:02:18;;;;;;;10.10;6.75;;;5.00;99.90;;;;;;5012596;28;20030;-56
2022/02/11 11:04:47;;;;;;;8.73;5.90;;;5.00;99.90;;;;;;5012841;28;20038;-58
2022/02/11 11:07:21;;;;;;;12.57;6.43;;;5.10;99.90;;;;;;5012642;28;20139;-51
2022/02/11 11:09:48;;;;;;;12.82;5.90;;;5.20;99.90;;;;;;5012369;28;20033;-57
2022/02/11 11:12:15;;;;;;;9.32;5.30;;;5.20;99.90;;;;;;5012726;28;20034;-60
2022/02/11 11:14:42;;;;;;;9.80;5.95;;;5.20;99.90;;;;;;5012701;28;20033;-57
2022/02/11 11:17:08;;;;;;;9.43;5.80;;;5.00;99.90;;;;;;5013067;28;20129;-53
2022/02/11 11:19:36;;;;;;;12.85;5.95;;;5.00;99.90;;;;;;5012266;28;20429;-53
2022/02/11 11:22:16;;;;;;;9.55;5.97;;;5.10;99.90;;;;;;5014519;28;20062;-54
2022/02/11 11:24:48;;;;;;;10.80;5.82;;;5.10;99.90;;;;;;4997837;28;20026;-54
2022/02/11 11:27:42;;;;;;;8.70;6.00;;;5.10;99.90;;;;;;4985959;28;20441;-53
2022/02/11 11:30:30;;;;;;;9.47;5.93;;;5.10;99.90;;;;;;5016643;28;20034;-52
2022/02/11 11:33:07;;;;;;;8.32;5.75;;;5.20;99.90;;;;;;5015400;28;20293;-53
2022/02/11 11:36:03;;;;;;;8.68;6.18;;;5.20;99.90;;;;;;5016680;28;20117;-51
2022/02/11 11:38:55;;;;;;;11.27;5.68;;;5.20;99.90;;;;;;4997662;28;20501;-53
2022/02/11 11:41:26;;;;;;;11.18;6.05;;;5.10;99.90;;;;;;4998176;28;20045;-53
2022/02/11 11:44:14;;;;;;;9.15;6.30;;;5.20;99.90;;;;;;5015364;28;20421;-55
2022/02/11 11:46:50;;;;;;;12.25;6.65;;;5.20;99.90;;;;;;5013797;28;20092;-52
2022/02/11 11:49:18;;;;;;;9.05;5.93;;;5.30;99.90;;;;;;5015322;28;20029;-54
2022/02/11 11:51:46;;;;;;;9.88;5.35;;;5.20;99.90;;;;;;5014589;28;20060;-58
2022/02/11 11:54:24;;;;;;;9.00;5.80;;;5.20;99.90;;;;;;4997698;28;20026;-54
2022/02/11 11:57:17;;;;;;;7.47;6.00;;;5.30;99.90;;;;;;5015431;28;20490;-57
2022/02/11 11:59:45;;;;;;;9.05;6.68;;;5.40;99.90;;;;;;5015365;28;20034;-54
2022/02/11 12:02:35;;;;;;;9.00;5.65;;;5.40;99.90;;;;;;5015405;28;20030;-56
2022/02/11 12:05:02;;;;;;;9.40;5.65;;;5.40;99.90;;;;;;5016146;28;20100;-55
2022/02/11 12:07:31;;;;;;;9.45;5.22;;;5.50;99.90;;;;;;5016339;28;20041;-55
2022/02/11 12:10:00;;;;;;;8.27;5.07;;;5.60;99.90;;;;;;5015324;28;20033;-53
2022/02/11 12:12:31;;;;;;;7.80;4.72;;;5.60;99.90;;;;;;5014719;28;20034;-54
2022/02/11 12:15:02;;;;;;;10.35;4.70;;;5.70;99.90;;;;;;5015491;28;20034;-57
2022/02/11 12:17:29;;;;;;;8.63;4.50;;;5.70;99.90;;;;;;5014731;28;20030;-56
2022/02/11 12:19:56;;;;;;;7.53;4.45;;;5.70;99.90;;;;;;5014952;28;20026;-55
2022/02/11 12:22:24;;;;;;;7.35;5.25;;;5.60;99.90;;;;;;5014338;28;20084;-54
2022/02/11 12:27:41;;;;;;;8.23;4.07;;;5.40;99.90;;;;;;5016676;28;20030;-52
2022/02/11 12:30:14;;;;;;;13.43;6.35;;;5.30;99.90;;;;;;5016828;28;20044;-54
2022/02/11 12:32:40;;;;;;;8.38;5.18;;;5.20;99.90;;;;;;4998579;28;20497;-54
2022/02/11 12:35:10;;;;;;;7.57;4.65;;;5.10;99.90;;;;;;5016672;28;20030;-57
2022/02/11 12:37:36;;;;;;;8.38;5.45;;;5.10;99.90;;;;;;5015086;28;20073;-55
2022/02/11 12:40:05;;;;;;;9.68;4.88;;;5.00;99.90;;;;;;5015425;28;20037;-56
2022/02/11 12:42:31;;;;;;;11.40;5.65;;;5.00;99.90;;;;;;5014578;28;20515;-57
2022/02/11 12:44:58;;;;;;;10.02;5.07;;;5.00;99.90;;;;;;5014914;28;20030;-56
2022/02/11 12:47:24;;;;;;;7.10;4.45;;;5.00;99.90;;;;;;5015066;28;20045;-56
2022/02/11 12:49:53;;;;;;;7.57;4.22;;;5.00;99.90;;;;;;5014661;28;20037;-56
2022/02/11 12:52:22;;;;;;;5.88;3.67;;;5.00;99.90;;;;;;5014493;28;20122;-57
2022/02/11 12:55:01;;;;;;;9.63;3.28;;;5.00;99.90;;;;;;5015431;28;20030;-57
2022/02/11 12:57:27;;;;;;;7.28;3.10;;;5.00;99.90;;;;;;5015009;28;20100;-56
2022/02/11 12:59:53;;;;;;;5.40;3.97;;;5.10;99.90;;;;;;5013892;28;21765;-54
2022/02/11 13:02:25;;;;;;;7.55;3.15;;;5.10;99.90;;;;;;5014283;28;20038;-56
2022/02/11 13:05:15;;;;;;;5.25;3.10;;;5.10;99.90;;;;;;5014243;28;20043;-56
2022/02/11 13:07:44;;;;;;;4.30;2.78;;;5.20;99.90;;;;;;5014574;28;20407;-54
2022/02/11 13:10:21;;;;;;;5.78;2.60;;;5.10;99.90;;;;;;5014029;28;20060;-53
2022/02/11 13:12:48;;;;;;;6.30;2.50;;;5.10;99.90;;;;;;5013394;28;20370;-53
2022/02/11 13:15:15;;;;;;;6.53;2.70;;;5.20;99.90;;;;;;5014058;28;20045;-55
2022/02/11 13:17:45;;;;;;;4.88;2.30;;;5.20;99.90;;;;;;5013828;28;20030;-59
2022/02/11 13:20:18;;;;;;;5.85;2.33;;;5.30;99.90;;;;;;5014851;28;20041;-58
2022/02/11 13:22:45;;;;;;;2.95;2.20;;;5.30;99.90;;;;;;4996203;28;20061;-53
2022/02/11 13:25:13;;;;;;;4.20;2.00;;;5.30;99.90;;;;;;5014712;28;20033;-56
2022/02/11 13:27:45;;;;;;;4.38;1.98;;;5.30;99.90;;;;;;4996687;28;20382;-58
2022/02/11 13:30:13;;;;;;;5.35;2.10;;;5.40;99.90;;;;;;5001675;28;20028;-54
2022/02/11 13:32:40;;;;;;;3.45;2.03;;;5.40;99.90;;;;;;5032722;28;20083;-56
2022/02/11 13:35:07;;;;;;;5.78;2.25;;;5.40;99.90;;;;;;5004256;28;20021;-53
2022/02/11 13:37:51;;;;;;;4.65;1.98;;;5.40;99.90;;;;;;5013608;28;20117;-55
2022/02/11 13:40:24;;;;;;;3.72;2.00;;;5.50;99.90;;;;;;4996588;28;20042;-57
2022/02/11 13:43:07;;;;;;;2.85;1.85;;;5.40;99.90;;;;;;5013298;28;20030;-56
2022/02/11 13:45:51;;;;;;;4.80;2.05;;;5.40;99.90;;;;;;5014622;28;20053;-55
2022/02/11 13:48:18;;;;;;;3.00;1.80;;;5.40;99.90;;;;;;4994618;28;20034;-56
2022/02/11 13:51:06;;;;;;;2.92;1.88;;;5.50;99.90;;;;;;4994527;28;20383;-57
2022/02/11 13:53:41;;;;;;;3.13;1.95;;;5.40;99.90;;;;;;5003601;28;20064;-56
2022/02/11 13:56:10;;;;;;;5.72;2.30;;;5.40;99.90;;;;;;5013621;28;20026;-57
2022/02/11 13:58:37;;;;;;;2.63;1.88;;;5.60;99.90;;;;;;5013621;28;20034;-55
2022/02/11 14:01:03;;;;;;;2.65;1.90;;;5.50;99.90;;;;;;4995940;28;20428;-57
2022/02/11 14:03:31;;;;;;;3.42;1.83;;;5.60;99.90;;;;;;5013527;28;20025;-56
2022/02/11 14:06:02;;;;;;;4.90;2.28;;;5.60;99.90;;;;;;5010219;28;20054;-59
2022/02/11 14:08:46;;;;;;;4.95;2.42;;;5.70;99.90;;;;;;5016341;28;20025;-56
2022/02/11 14:11:15;;;;;;;3.97;1.87;;;5.70;99.90;;;;;;5013345;28;20095;-56
2022/02/11 14:13:42;;;;;;;3.70;1.92;;;5.60;99.90;;;;;;5013968;28;20046;-56
2022/02/11 14:16:09;;;;;;;4.97;1.90;;;5.60;99.90;;;;;;5012549;28;20037;-57
2022/02/11 14:18:38;;;;;;;5.05;2.50;;;5.70;99.90;;;;;;5013401;28;20030;-57
2022/02/11 14:21:03;;;;;;;1.95;1.70;;;5.60;99.90;;;;;;5012684;28;20053;-56
2022/02/11 14:23:30;;;;;;;5.38;2.42;;;5.60;99.90;;;;;;5016427;28;20029;-54
2022/02/11 14:25:56;;;;;;;8.20;2.72;;;5.60;99.90;;;;;;5013140;28;20065;-53
2022/02/11 14:28:25;;;;;;;3.28;2.20;;;5.70;99.90;;;;;;5013446;28;20049;-54
2022/02/11 14:30:50;;;;;;;6.47;2.30;;;5.70;99.90;;;;;;5013226;28;20033;-55
2022/02/11 14:33:16;;;;;;;4.30;2.75;;;5.80;99.90;;;;;;5012389;28;20043;-55
2022/02/11 14:35:42;;;;;;;7.65;2.60;;;5.90;99.90;;;;;;5012670;28;20024;-52
2022/02/11 14:38:08;;;;;;;3.47;2.00;;;5.80;99.90;;;;;;4975688;28;20039;-57
2022/02/11 14:40:35;;;;;;;3.35;1.85;;;5.90;99.90;;;;;;5011518;28;20029;-54
2022/02/11 14:43:02;;;;;;;3.50;1.77;;;5.80;99.90;;;;;;5012541;28;20052;-51
2022/02/11 14:45:28;;;;;;;5.05;1.90;;;5.70;99.90;;;;;;4994619;28;20033;-54
2022/02/11 14:47:53;;;;;;;6.03;2.17;;;5.60;99.90;;;;;;5011599;28;20040;-58
2022/02/11 14:50:19;;;;;;;3.67;2.10;;;5.50;99.90;;;;;;4999050;28;20437;-55
2022/02/11 14:52:44;;;;;;;3.38;2.10;;;5.40;99.90;;;;;;5011521;28;20390;-54
2022/02/11 14:55:10;;;;;;;2.85;2.10;;;5.30;99.90;;;;;;5002526;28;20156;-58
2022/02/11 14:57:36;;;;;;;3.88;2.15;;;5.40;99.90;;;;;;5002383;28;20029;-58
2022/02/11 15:00:02;;;;;;;4.78;2.30;;;5.40;99.90;;;;;;5010278;28;20417;-58
2022/02/11 15:02:27;;;;;;;4.88;3.05;;;5.30;99.90;;;;;;5010836;28;20037;-58
2022/02/11 15:04:54;;;;;;;3.13;2.30;;;5.40;99.90;;;;;;5015089;28;20433;-55
2022/02/11 15:07:20;;;;;;;4.97;2.70;;;5.40;99.90;;;;;;5017902;28;20030;-57
2022/02/11 15:09:46;;;;;;;6.05;3.03;;;5.40;99.90;;;;;;5013452;28;20677;-56
2022/02/11 15:12:11;;;;;;;4.95;3.17;;;5.40;99.90;;;;;;5012786;28;20405;-56
2022/02/11 15:14:37;;;;;;;3.25;2.40;;;5.40;99.90;;;;;;5016435;28;20108;-55
2022/02/11 15:17:03;;;;;;;4.50;2.55;;;5.40;99.90;;;;;;5012760;28;20088;-55
2022/02/11 15:19:28;;;;;;;3.75;2.30;;;5.40;99.90;;;;;;5011486;28;20046;-55
2022/02/11 15:21:54;;;;;;;3.58;2.40;;;5.50;99.90;;;;;;5012750;28;20034;-56
2022/02/11 15:24:20;;;;;;;3.28;2.53;;;5.40;99.90;;;;;;5015385;28;20105;-55
2022/02/11 15:26:46;;;;;;;5.18;2.90;;;5.40;99.90;;;;;;5015592;28;20026;-55
2022/02/11 15:29:11;;;;;;;5.30;2.50;;;5.20;99.90;;;;;;5015711;28;20049;-56
2022/02/11 15:31:38;;;;;;;5.28;2.85;;;5.20;99.90;;;;;;5015358;28;20038;-55
2022/02/11 15:34:05;;;;;;;5.32;2.55;;;5.10;99.90;;;;;;5014927;28;20486;-55
2022/02/11 15:36:31;;;;;;;5.57;2.28;;;5.20;99.90;;;;;;5016846;28;20520;-58
2022/02/11 15:38:56;;;;;;;4.22;2.45;;;5.20;99.90;;;;;;5015611;28;20022;-51
2022/02/11 15:41:23;;;;;;;5.18;2.55;;;5.40;99.90;;;;;;5018203;28;20117;-53
2022/02/11 15:43:49;;;;;;;2.47;2.03;;;5.30;99.90;;;;;;5017716;28;20022;-56
2022/02/11 15:46:14;;;;;;;2.70;2.30;;;5.30;99.90;;;;;;5033996;28;20044;-51
2022/02/11 15:48:40;;;;;;;3.72;2.05;;;5.30;99.90;;;;;;5015636;28;20026;-51
2022/02/11 15:51:07;;;;;;;4.95;2.45;;;5.30;99.90;;;;;;5015212;28;20033;-57
2022/02/11 15:53:33;;;;;;;5.15;3.05;;;5.20;99.90;;;;;;5016815;28;20029;-53
2022/02/11 15:55:58;;;;;;;3.22;2.85;;;5.20;99.90;;;;;;5015968;28;20041;-54
2022/02/11 15:58:24;;;;;;;3.30;2.60;;;5.30;99.90;;;;;;5014784;28;20033;-54
2022/02/11 16:00:50;;;;;;;3.72;2.72;;;5.40;99.90;;;;;;5014724;28;20042;-56
2022/02/11 16:03:16;;;;;;;3.30;2.97;;;5.30;99.90;;;;;;5013561;28;20092;-56
2022/02/11 16:05:44;;;;;;;3.78;3.17;;;5.30;99.90;;;;;;5016710;28;20562;-57
2022/02/11 16:08:10;;;;;;;3.53;3.10;;;5.20;99.90;;;;;;5005028;28;20437;-57
2022/02/11 16:10:35;;;;;;;6.00;3.65;;;5.20;99.90;;;;;;5010231;28;20034;-56
2022/02/11 16:13:01;;;;;;;3.45;3.05;;;5.20;99.90;;;;;;5013923;28;20108;-51
2022/02/11 16:15:26;;;;;;;4.68;3.03;;;5.20;99.90;;;;;;5014403;28;20050;-55
2022/02/11 16:18:05;;;;;;;4.70;3.33;;;5.20;99.90;;;;;;5013808;28;20402;-55
2022/02/11 16:20:39;;;;;;;5.63;3.90;;;5.20;99.90;;;;;;5014412;28;20125;-55
2022/02/11 16:23:06;;;;;;;5.28;3.97;;;5.20;99.90;;;;;;5013376;28;20721;-53
2022/02/11 16:25:33;;;;;;;4.90;4.10;;;5.20;99.90;;;;;;5014159;28;20058;-55
2022/02/11 16:27:59;;;;;;;4.57;4.05;;;5.30;99.90;;;;;;5013579;28;20393;-54